Time;durP1;ratioP1;P1;durP2;ratioP2;P2;SDS_P1;SDS_P2;PMS_P1;PMS_P2;Temp;Humidity;BMP_temperature;BMP_pressure;BME280_temperature;BME280_humidity;BME280_pressure;Samples;Min_cycle;Max_cycle;Signal;HPM_P1;HPM_P2
2022/02/20 00:00:51;;;;;;;11.55;4.97;;;;;;;;;;4998046;28;20026;-44
2022/02/20 00:03:17;;;;;;;28.65;14.48;;;;;;;;;;5008546;28;20070;-42
2022/02/20 00:05:44;;;;;;;22.35;11.82;;;;;;;;;;5005689;28;20038;-42
2022/02/20 00:08:10;;;;;;;51.67;29.13;;;;;;;;;;5003861;28;20030;-43
2022/02/20 00:10:38;;;;;;;18.23;9.95;;;;;;;;;;4995814;28;20102;-41
2022/02/20 00:13:04;;;;;;;20.33;12.63;;;;;;;;;;4994625;28;20029;-42
2022/02/20 00:15:32;;;;;;;21.02;8.57;;;;;;;;;;4995147;28;20023;-41
2022/02/20 00:18:03;;;;;;;12.80;5.03;;;;;;;;;;5003208;28;20109;-41
2022/02/20 00:20:30;;;;;;;24.90;12.98;;;;;;;;;;4997261;28;20073;-41
2022/02/20 00:22:56;;;;;;;18.67;9.45;;;;;;;;;;5003302;28;20054;-42
2022/02/20 00:25:25;;;;;;;98.55;51.97;;;;;;;;;;5002701;28;20046;-41
2022/02/20 00:27:51;;;;;;;34.25;18.70;;;;;;;;;;5001391;28;20109;-43
2022/02/20 00:30:18;;;;;;;64.85;30.45;;;;;;;;;;5000088;28;20492;-42
2022/02/20 00:32:44;;;;;;;29.35;14.60;;;;;;;;;;4996903;28;20027;-41
2022/02/20 00:35:10;;;;;;;38.90;16.50;;;;;;;;;;4999759;28;20054;-43
2022/02/20 00:37:36;;;;;;;10.00;4.78;;;;;;;;;;5001034;28;20035;-42
2022/02/20 00:40:03;;;;;;;8.90;3.47;;;;;;;;;;5003168;28;20037;-43
2022/02/20 00:42:29;;;;;;;41.40;22.95;;;;;;;;;;4997415;28;20028;-43
2022/02/20 00:44:57;;;;;;;27.50;12.77;;;;;;;;;;5002123;28;20491;-42
2022/02/20 00:47:24;;;;;;;15.27;5.80;;;;;;;;;;4996932;28;20041;-41
2022/02/20 00:49:50;;;;;;;21.27;7.88;;;;;;;;;;5005375;28;20061;-42
2022/02/20 00:52:16;;;;;;;18.13;5.25;;;;;;;;;;4997532;28;20567;-42
2022/02/20 00:54:42;;;;;;;22.30;10.40;;;;;;;;;;5001312;28;20034;-42
2022/02/20 00:57:10;;;;;;;21.20;9.60;;;;;;;;;;5006916;28;20060;-42
2022/02/20 00:59:36;;;;;;;23.75;11.25;;;;;;;;;;5005727;28;20517;-41
2022/02/20 01:02:03;;;;;;;20.05;8.43;;;;;;;;;;5002063;28;20050;-42
2022/02/20 01:04:31;;;;;;;28.30;10.27;;;;;;;;;;5002837;28;20037;-42
2022/02/20 01:06:57;;;;;;;16.98;6.72;;;;;;;;;;5004749;28;20033;-43
2022/02/20 01:09:24;;;;;;;12.70;4.93;;;;;;;;;;5010400;28;20031;-43
2022/02/20 01:11:50;;;;;;;15.30;5.72;;;;;;;;;;4996963;28;20030;-42
2022/02/20 01:14:16;;;;;;;20.38;8.82;;;;;;;;;;5001483;28;20026;-42
2022/02/20 01:16:42;;;;;;;23.27;10.88;;;;;;;;;;4995319;28;20037;-43
2022/02/20 01:19:08;;;;;;;13.55;6.32;;;;;;;;;;4989910;28;20029;-44
2022/02/20 01:21:34;;;;;;;17.15;8.07;;;;;;;;;;4968274;28;20030;-41
2022/02/20 01:24:00;;;;;;;17.35;6.20;;;;;;;;;;4967963;28;20109;-44
2022/02/20 01:26:26;;;;;;;15.18;6.68;;;;;;;;;;4967719;28;20084;-44
2022/02/20 01:28:52;;;;;;;19.70;8.52;;;;;;;;;;4967583;28;20019;-43
2022/02/20 01:31:18;;;;;;;11.10;2.55;;;;;;;;;;4966657;28;20073;-44
2022/02/20 01:33:45;;;;;;;8.65;3.33;;;;;;;;;;4967238;28;20034;-46
2022/02/20 01:36:11;;;;;;;16.17;7.30;;;;;;;;;;4967820;28;20533;-46
2022/02/20 01:38:37;;;;;;;8.07;4.53;;;;;;;;;;4967712;28;20096;-43
2022/02/20 01:41:03;;;;;;;8.50;1.98;;;;;;;;;;4967191;28;20031;-47
2022/02/20 01:43:30;;;;;;;10.02;5.25;;;;;;;;;;4967617;28;20066;-44
2022/02/20 01:45:56;;;;;;;5.03;2.17;;;;;;;;;;4967234;28;20413;-43
2022/02/20 01:48:22;;;;;;;11.15;5.45;;;;;;;;;;4967445;28;20554;-44
2022/02/20 01:50:51;;;;;;;4.50;1.80;;;;;;;;;;4967050;28;20041;-42
2022/02/20 01:53:18;;;;;;;4.53;1.50;;;;;;;;;;4967258;28;21087;-45
2022/02/20 01:55:44;;;;;;;8.13;3.70;;;;;;;;;;4967236;28;20045;-43
2022/02/20 01:58:10;;;;;;;9.07;3.33;;;;;;;;;;4967136;28;20107;-46
2022/02/20 02:00:36;;;;;;;7.68;3.22;;;;;;;;;;4967373;28;20038;-48
2022/02/20 02:03:03;;;;;;;10.15;4.43;;;;;;;;;;4967651;28;20080;-42
2022/02/20 02:05:29;;;;;;;5.82;3.75;;;;;;;;;;4966735;28;20038;-46
2022/02/20 02:07:55;;;;;;;11.07;3.65;;;;;;;;;;4966755;28;20026;-43
2022/02/20 02:10:21;;;;;;;6.03;1.10;;;;;;;;;;4967167;28;20034;-44
2022/02/20 02:12:47;;;;;;;5.43;2.00;;;;;;;;;;4966871;28;20810;-42
2022/02/20 02:15:14;;;;;;;5.90;1.67;;;;;;;;;;4966795;28;20040;-44
2022/02/20 02:17:42;;;;;;;6.53;2.67;;;;;;;;;;4967239;28;21137;-45
2022/02/20 02:20:09;;;;;;;7.28;3.25;;;;;;;;;;4963959;28;20395;-42
2022/02/20 02:22:35;;;;;;;3.95;1.25;;;;;;;;;;4966027;28;20022;-42
2022/02/20 02:25:01;;;;;;;7.45;2.28;;;;;;;;;;4965008;28;20972;-42
2022/02/20 02:27:27;;;;;;;15.07;6.65;;;;;;;;;;4966317;28;20030;-43
2022/02/20 02:29:54;;;;;;;8.63;1.88;;;;;;;;;;4965818;28;20041;-43
2022/02/20 02:32:21;;;;;;;5.85;1.90;;;;;;;;;;4966296;28;20045;-44
2022/02/20 02:34:47;;;;;;;6.38;1.60;;;;;;;;;;4966319;28;20030;-45
2022/02/20 02:37:13;;;;;;;11.50;3.47;;;;;;;;;;4966904;28;20096;-41
2022/02/20 02:39:40;;;;;;;4.80;1.73;;;;;;;;;;4966236;28;20026;-43
2022/02/20 02:42:07;;;;;;;9.43;4.78;;;;;;;;;;4966459;28;20065;-46
2022/02/20 02:44:33;;;;;;;15.18;7.32;;;;;;;;;;4965942;28;20034;-43
2022/02/20 02:46:59;;;;;;;7.78;3.08;;;;;;;;;;4966242;28;20038;-43
2022/02/20 02:49:26;;;;;;;5.10;2.30;;;;;;;;;;4966196;28;20390;-45
2022/02/20 02:51:52;;;;;;;5.60;1.92;;;;;;;;;;4965247;28;20085;-44
2022/02/20 02:54:18;;;;;;;14.07;6.68;;;;;;;;;;4965953;28;20026;-43
2022/02/20 02:56:48;;;;;;;4.00;1.20;;;;;;;;;;4965952;28;20439;-41
2022/02/20 02:59:14;;;;;;;9.45;4.50;;;;;;;;;;4966325;28;20026;-43
2022/02/20 03:01:44;;;;;;;9.25;4.30;;;;;;;;;;4965811;28;20026;-42
2022/02/20 03:04:10;;;;;;;5.75;1.70;;;;;;;;;;4965370;28;20041;-43
2022/02/20 03:06:36;;;;;;;9.35;2.88;;;;;;;;;;4965855;28;20149;-43
2022/02/20 03:09:04;;;;;;;11.18;5.55;;;;;;;;;;4966043;28;20033;-45
2022/02/20 03:11:30;;;;;;;8.05;3.42;;;;;;;;;;4965929;28;20034;-43
2022/02/20 03:13:57;;;;;;;9.68;2.70;;;;;;;;;;4965926;28;20109;-45
2022/02/20 03:16:25;;;;;;;8.77;2.40;;;;;;;;;;4965922;28;20037;-42
2022/02/20 03:18:51;;;;;;;9.13;4.72;;;;;;;;;;4965558;28;20030;-46
2022/02/20 03:21:17;;;;;;;2.42;1.67;;;;;;;;;;4965873;28;20030;-45
2022/02/20 03:23:43;;;;;;;3.92;2.75;;;;;;;;;;4966052;28;20021;-43
2022/02/20 03:26:09;;;;;;;8.05;3.15;;;;;;;;;;4965477;28;20119;-43
2022/02/20 03:28:38;;;;;;;9.88;3.80;;;;;;;;;;4965704;28;20030;-43
2022/02/20 03:31:04;;;;;;;6.65;2.13;;;;;;;;;;4965771;28;20043;-43
2022/02/20 03:33:35;;;;;;;7.63;3.00;;;;;;;;;;4965419;28;20022;-43
2022/02/20 03:36:07;;;;;;;5.70;1.73;;;;;;;;;;4965844;28;20466;-42
2022/02/20 03:38:33;;;;;;;3.97;1.70;;;;;;;;;;4965525;28;20027;-44
2022/02/20 03:41:04;;;;;;;6.70;3.90;;;;;;;;;;4965574;28;20065;-44
2022/02/20 03:43:30;;;;;;;16.00;5.80;;;;;;;;;;4965390;28;20023;-46
2022/02/20 03:46:00;;;;;;;4.85;1.52;;;;;;;;;;4965909;28;20564;-43
2022/02/20 03:48:26;;;;;;;11.18;4.18;;;;;;;;;;4964839;28;20089;-43
2022/02/20 03:50:52;;;;;;;7.22;2.50;;;;;;;;;;4965709;28;20141;-45
2022/02/20 03:53:18;;;;;;;15.43;7.80;;;;;;;;;;4965472;28;20038;-43
2022/02/20 03:55:44;;;;;;;10.23;4.28;;;;;;;;;;4967970;28;20022;-44
2022/02/20 03:58:11;;;;;;;4.80;2.40;;;;;;;;;;4969413;28;20037;-44
2022/02/20 04:00:37;;;;;;;5.57;2.28;;;;;;;;;;4969482;28;20481;-43
2022/02/20 04:03:03;;;;;;;9.13;3.88;;;;;;;;;;4969193;28;20577;-45
2022/02/20 04:05:29;;;;;;;15.27;8.82;;;;;;;;;;4968970;28;20033;-44
2022/02/20 04:07:55;;;;;;;14.23;7.65;;;;;;;;;;4969688;28;20033;-45
2022/02/20 04:10:21;;;;;;;11.93;6.18;;;;;;;;;;4968877;28;20033;-45
2022/02/20 04:12:47;;;;;;;5.28;2.63;;;;;;;;;;4989353;28;20061;-44
2022/02/20 04:15:13;;;;;;;8.38;3.38;;;;;;;;;;4996873;28;20026;-43
2022/02/20 04:17:40;;;;;;;36.20;19.60;;;;;;;;;;4996900;28;20062;-49
2022/02/20 04:20:06;;;;;;;9.68;5.28;;;;;;;;;;4997047;28;20034;-44
2022/02/20 04:22:32;;;;;;;6.32;2.20;;;;;;;;;;4997054;28;20029;-44
2022/02/20 04:24:59;;;;;;;9.10;4.90;;;;;;;;;;4996976;28;20080;-43
2022/02/20 04:27:25;;;;;;;4.43;1.77;;;;;;;;;;4996776;28;20042;-44
2022/02/20 04:29:51;;;;;;;18.98;9.25;;;;;;;;;;4996582;28;20026;-44
2022/02/20 04:32:18;;;;;;;13.55;7.63;;;;;;;;;;4996890;28;20037;-45
2022/02/20 04:34:44;;;;;;;22.85;9.23;;;;;;;;;;4996439;28;20031;-42
2022/02/20 04:37:10;;;;;;;8.55;4.70;;;;;;;;;;4996793;28;20049;-42
2022/02/20 04:39:36;;;;;;;8.77;4.35;;;;;;;;;;4996802;28;20031;-42
2022/02/20 04:42:02;;;;;;;7.85;4.15;;;;;;;;;;4996734;28;20022;-42
2022/02/20 04:44:28;;;;;;;14.15;6.50;;;;;;;;;;4996403;28;20107;-42
2022/02/20 04:46:54;;;;;;;15.43;7.10;;;;;;;;;;4996762;28;20038;-42
2022/02/20 04:49:20;;;;;;;6.80;3.50;;;;;;;;;;4996381;28;20042;-42
2022/02/20 04:51:46;;;;;;;2.25;1.10;;;;;;;;;;4996316;28;20030;-42
2022/02/20 04:54:13;;;;;;;4.10;1.25;;;;;;;;;;4996412;28;20070;-42
2022/02/20 04:56:42;;;;;;;7.80;4.93;;;;;;;;;;4996292;28;20105;-42
2022/02/20 04:59:11;;;;;;;7.85;3.20;;;;;;;;;;4996372;28;20376;-43
2022/02/20 05:01:38;;;;;;;12.25;5.18;;;;;;;;;;4996191;28;20052;-43
2022/02/20 05:04:04;;;;;;;4.50;1.95;;;;;;;;;;4996096;28;20468;-44
2022/02/20 05:06:30;;;;;;;6.80;1.77;;;;;;;;;;4996072;28;20043;-43
2022/02/20 05:08:57;;;;;;;7.72;2.20;;;;;;;;;;4996101;28;20050;-43
2022/02/20 05:11:24;;;;;;;4.93;2.15;;;;;;;;;;4996204;28;20029;-44
2022/02/20 05:13:51;;;;;;;7.35;3.80;;;;;;;;;;4996116;28;20034;-44
2022/02/20 05:16:21;;;;;;;5.47;2.15;;;;;;;;;;4996151;28;20085;-44
2022/02/20 05:18:47;;;;;;;8.30;4.03;;;;;;;;;;4995956;28;20056;-43
2022/02/20 05:21:13;;;;;;;4.45;2.30;;;;;;;;;;4995922;28;20451;-43
2022/02/20 05:23:39;;;;;;;6.13;2.92;;;;;;;;;;4995802;28;20018;-43
2022/02/20 05:26:05;;;;;;;9.18;3.55;;;;;;;;;;4995804;28;20537;-43
2022/02/20 05:28:31;;;;;;;5.13;2.38;;;;;;;;;;4995795;28;20462;-44
2022/02/20 05:31:02;;;;;;;6.00;2.47;;;;;;;;;;4995492;28;20027;-43
2022/02/20 05:33:28;;;;;;;10.27;4.32;;;;;;;;;;4995841;28;20027;-43
2022/02/20 05:35:54;;;;;;;23.70;11.73;;;;;;;;;;4995634;28;20060;-43
2022/02/20 05:38:20;;;;;;;6.22;2.53;;;;;;;;;;4995782;28;20050;-44
2022/02/20 05:40:46;;;;;;;12.90;6.43;;;;;;;;;;4995455;28;20390;-43
2022/02/20 05:43:13;;;;;;;21.75;11.25;;;;;;;;;;4995299;28;20109;-43
2022/02/20 05:45:39;;;;;;;17.67;9.77;;;;;;;;;;4995364;28;20105;-43
2022/02/20 05:48:05;;;;;;;20.17;10.95;;;;;;;;;;4995523;28;20031;-43
2022/02/20 05:50:32;;;;;;;8.00;3.65;;;;;;;;;;4995399;28;20447;-43
2022/02/20 05:52:58;;;;;;;15.55;8.77;;;;;;;;;;4995088;28;20033;-43
2022/02/20 05:55:26;;;;;;;11.75;5.75;;;;;;;;;;4995290;28;20459;-43
2022/02/20 05:57:56;;;;;;;11.05;4.43;;;;;;;;;;4993662;28;20045;-43
2022/02/20 06:00:27;;;;;;;14.77;6.50;;;;;;;;;;4995075;28;20054;-43
2022/02/20 06:02:53;;;;;;;7.82;2.67;;;;;;;;;;4995310;28;20150;-45
2022/02/20 06:05:19;;;;;;;3.85;1.80;;;;;;;;;;4994660;28;20041;-44
2022/02/20 06:07:45;;;;;;;4.05;1.48;;;;;;;;;;4995175;28;20084;-41
2022/02/20 06:10:12;;;;;;;5.72;1.70;;;;;;;;;;4995066;28;20023;-44
2022/02/20 06:12:38;;;;;;;4.60;1.55;;;;;;;;;;4994838;28;20029;-45
2022/02/20 06:15:05;;;;;;;10.70;7.03;;;;;;;;;;4995052;28;20030;-42
2022/02/20 06:17:31;;;;;;;3.15;1.40;;;;;;;;;;4995241;28;20039;-42
2022/02/20 06:19:57;;;;;;;14.73;7.50;;;;;;;;;;4986572;28;20084;-44
2022/02/20 06:22:24;;;;;;;13.63;4.88;;;;;;;;;;4998192;28;20026;-43
2022/02/20 06:24:50;;;;;;;11.57;6.00;;;;;;;;;;4994403;28;20028;-43
2022/02/20 06:27:16;;;;;;;17.58;8.23;;;;;;;;;;4994500;28;20034;-44
2022/02/20 06:29:42;;;;;;;9.18;5.57;;;;;;;;;;4987974;28;20051;-43
2022/02/20 06:32:08;;;;;;;12.13;5.72;;;;;;;;;;4993449;28;20137;-43
2022/02/20 06:34:34;;;;;;;8.60;3.85;;;;;;;;;;4994353;28;20031;-43
2022/02/20 06:37:01;;;;;;;12.60;6.85;;;;;;;;;;5012625;28;20053;-43
2022/02/20 06:39:27;;;;;;;19.88;10.23;;;;;;;;;;5014094;28;20078;-47
2022/02/20 06:41:53;;;;;;;12.95;6.88;;;;;;;;;;5013882;28;20025;-43
2022/02/20 06:44:19;;;;;;;9.93;5.57;;;;;;;;;;5013822;28;20022;-43
2022/02/20 06:46:46;;;;;;;16.88;7.07;;;;;;;;;;4996292;28;20394;-44
2022/02/20 06:49:12;;;;;;;12.27;5.45;;;;;;;;;;5013796;28;20492;-43
2022/02/20 06:51:38;;;;;;;7.88;4.50;;;;;;;;;;5013783;28;20036;-43
2022/02/20 06:54:06;;;;;;;11.82;5.25;;;;;;;;;;5014029;28;20025;-43
2022/02/20 06:56:33;;;;;;;13.55;6.97;;;;;;;;;;5013832;28;20073;-43
2022/02/20 06:58:59;;;;;;;12.80;7.30;;;;;;;;;;5013619;28;20018;-43
2022/02/20 07:01:25;;;;;;;10.68;6.45;;;;;;;;;;5013777;28;20080;-42
2022/02/20 07:03:51;;;;;;;12.30;6.47;;;;;;;;;;5013692;28;20030;-44
2022/02/20 07:06:18;;;;;;;13.27;7.40;;;;;;;;;;5013384;28;20025;-44
2022/02/20 07:08:44;;;;;;;9.77;5.40;;;;;;;;;;5013894;28;20488;-45
2022/02/20 07:11:12;;;;;;;11.40;5.28;;;;;;;;;;5013842;28;20045;-43
2022/02/20 07:13:38;;;;;;;11.43;6.22;;;;;;;;;;5013744;28;20026;-49
2022/02/20 07:16:04;;;;;;;9.38;6.25;;;;;;;;;;5013951;28;20030;-47
2022/02/20 07:18:35;;;;;;;14.52;8.15;;;;;;;;;;5014115;28;20057;-45
2022/02/20 07:21:01;;;;;;;15.23;9.13;;;;;;;;;;5013731;28;20022;-46
2022/02/20 07:23:27;;;;;;;14.68;8.60;;;;;;;;;;5013901;28;20025;-46
2022/02/20 07:25:53;;;;;;;15.13;8.70;;;;;;;;;;5013589;28;20033;-48
2022/02/20 07:28:19;;;;;;;11.57;7.47;;;;;;;;;;5013553;28;20105;-56
2022/02/20 07:30:47;;;;;;;15.30;9.55;;;;;;;;;;5016307;28;20088;-45
2022/02/20 07:33:15;;;;;;;17.52;9.88;;;;;;;;;;5017946;28;20033;-49
2022/02/20 07:35:41;;;;;;;23.90;12.70;;;;;;;;;;5017487;28;20057;-43
2022/02/20 07:38:07;;;;;;;19.98;12.57;;;;;;;;;;4999774;28;20481;-45
2022/02/20 07:40:35;;;;;;;17.45;11.07;;;;;;;;;;5017540;28;20068;-44
2022/02/20 07:43:01;;;;;;;18.35;10.10;;;;;;;;;;5017586;28;20497;-46
2022/02/20 07:45:28;;;;;;;17.27;9.70;;;;;;;;;;5017588;28;20053;-50
2022/02/20 07:48:03;;;;;;;13.60;7.32;;;;;;;;;;5017287;28;20026;-54
2022/02/20 07:50:33;;;;;;;13.38;7.40;;;;;;;;;;4999657;28;20478;-42
2022/02/20 07:52:59;;;;;;;11.80;5.90;;;;;;;;;;5017207;28;20033;-53
2022/02/20 07:55:28;;;;;;;12.95;6.65;;;;;;;;;;5017249;28;20097;-52
2022/02/20 07:57:54;;;;;;;10.38;6.10;;;;;;;;;;5017148;28;20029;-46
2022/02/20 08:00:21;;;;;;;12.38;6.40;;;;;;;;;;5017283;28;20448;-50
2022/02/20 08:02:48;;;;;;;17.63;9.73;;;;;;;;;;4999494;28;20064;-53
2022/02/20 08:05:14;;;;;;;20.73;10.80;;;;;;;;;;5016910;28;20033;-52
2022/02/20 08:07:40;;;;;;;23.80;13.45;;;;;;;;;;5016981;28;20112;-44
2022/02/20 08:10:07;;;;;;;28.42;15.93;;;;;;;;;;5017256;28;20076;-48
2022/02/20 08:12:33;;;;;;;25.48;16.27;;;;;;;;;;5016961;28;20026;-50
2022/02/20 08:14:59;;;;;;;27.02;15.15;;;;;;;;;;5016945;28;20030;-44
2022/02/20 08:17:25;;;;;;;17.50;10.75;;;;;;;;;;5017170;28;20465;-48
2022/02/20 08:19:52;;;;;;;36.65;21.65;;;;;;;;;;5016753;28;20022;-47
2022/02/20 08:22:18;;;;;;;27.90;14.45;;;;;;;;;;5019048;28;20110;-49
2022/02/20 08:24:45;;;;;;;24.73;13.55;;;;;;;;;;5021750;28;20037;-43
2022/02/20 08:27:12;;;;;;;29.27;16.17;;;;;;;;;;5016620;28;20117;-42
2022/02/20 08:29:40;;;;;;;23.48;14.05;;;;;;;;;;5016987;28;20022;-47
2022/02/20 08:32:07;;;;;;;53.35;22.77;;;;;;;;;;5016741;28;20088;-43
2022/02/20 08:34:35;;;;;;;56.08;30.50;;;;;;;;;;5027624;28;20026;-45
2022/02/20 08:37:02;;;;;;;125.25;62.20;;;;;;;;;;5017462;28;20107;-46
2022/02/20 08:39:29;;;;;;;45.17;25.67;;;;;;;;;;5016501;28;20041;-46
2022/02/20 08:41:55;;;;;;;75.40;41.75;;;;;;;;;;5015863;28;20387;-48
2022/02/20 08:44:22;;;;;;;25.95;14.45;;;;;;;;;;5016446;28;20056;-45
2022/02/20 08:46:48;;;;;;;20.35;11.13;;;;;;;;;;5016351;28;20073;-46
2022/02/20 08:49:14;;;;;;;57.05;29.45;;;;;;;;;;5016719;28;20022;-47
2022/02/20 08:51:40;;;;;;;74.30;32.15;;;;;;;;;;5016158;28;20033;-43
2022/02/20 08:54:06;;;;;;;145.80;63.63;;;;;;;;;;5016135;28;20029;-46
2022/02/20 08:56:32;;;;;;;80.97;45.60;;;;;;;;;;5015939;28;20026;-43
2022/02/20 08:59:00;;;;;;;65.28;26.40;;;;;;;;;;5015919;28;20148;-45
2022/02/20 09:01:28;;;;;;;32.00;17.92;;;;;;;;;;5015982;28;20029;-47
2022/02/20 09:04:02;;;;;;;25.30;14.43;;;;;;;;;;5015860;28;20072;-44
2022/02/20 09:06:29;;;;;;;19.33;10.73;;;;;;;;;;5015926;28;20053;-45
2022/02/20 09:08:55;;;;;;;14.07;7.18;;;;;;;;;;5015829;28;20018;-44
2022/02/20 09:11:21;;;;;;;13.90;7.30;;;;;;;;;;5015884;28;20029;-47
2022/02/20 09:13:47;;;;;;;12.50;6.18;;;;;;;;;;5015918;28;20022;-45
2022/02/20 09:16:13;;;;;;;10.82;6.28;;;;;;;;;;5015768;28;20385;-43
2022/02/20 09:18:40;;;;;;;14.50;7.82;;;;;;;;;;5015637;28;20512;-43
2022/02/20 09:21:06;;;;;;;15.93;9.23;;;;;;;;;;5015625;28;20084;-42
2022/02/20 09:23:32;;;;;;;29.42;15.13;;;;;;;;;;5015494;28;20433;-42
2022/02/20 09:25:58;;;;;;;36.33;22.02;;;;;;;;;;5015240;28;20053;-42
2022/02/20 09:28:24;;;;;;;34.25;19.52;;;;;;;;;;5015455;28;20061;-41
2022/02/20 09:30:50;;;;;;;24.27;13.00;;;;;;;;;;5015153;28;20370;-46
2022/02/20 09:33:16;;;;;;;21.55;11.65;;;;;;;;;;5003891;28;20042;-41
2022/02/20 09:35:42;;;;;;;25.88;15.73;;;;;;;;;;5005452;28;20053;-43
2022/02/20 09:38:09;;;;;;;45.85;22.52;;;;;;;;;;5003318;28;20456;-43
2022/02/20 09:40:35;;;;;;;38.20;16.05;;;;;;;;;;5004305;28;20384;-48
2022/02/20 09:43:01;;;;;;;25.85;13.90;;;;;;;;;;5005782;28;20022;-43
2022/02/20 09:45:27;;;;;;;47.83;19.23;;;;;;;;;;5004479;28;20094;-42
2022/02/20 09:47:53;;;;;;;25.67;10.88;;;;;;;;;;5004319;28;20038;-47
2022/02/20 09:50:20;;;;;;;18.88;8.27;;;;;;;;;;5005678;28;20014;-41
2022/02/20 09:52:46;;;;;;;14.00;6.68;;;;;;;;;;5003130;28;20544;-42
2022/02/20 09:55:12;;;;;;;20.08;10.00;;;;;;;;;;5004679;28;20022;-43
2022/02/20 09:57:41;;;;;;;19.23;11.38;;;;;;;;;;5005582;28;20058;-42
2022/02/20 10:00:08;;;;;;;26.05;16.10;;;;;;;;;;5002251;28;20070;-41
2022/02/20 10:02:36;;;;;;;23.73;13.32;;;;;;;;;;5009205;28;20083;-43
2022/02/20 10:05:04;;;;;;;12.00;7.47;;;;;;;;;;5014560;28;20429;-42
2022/02/20 10:07:33;;;;;;;23.88;12.75;;;;;;;;;;5014351;28;20045;-43
2022/02/20 10:10:05;;;;;;;29.50;15.50;;;;;;;;;;5014754;28;20018;-43
2022/02/20 10:12:31;;;;;;;24.48;9.32;;;;;;;;;;5014897;28;20500;-42
2022/02/20 10:14:57;;;;;;;31.13;16.73;;;;;;;;;;5014663;28;20425;-42
2022/02/20 10:17:27;;;;;;;33.17;16.90;;;;;;;;;;5014613;28;20064;-42
2022/02/20 10:19:56;;;;;;;27.20;15.65;;;;;;;;;;5014502;28;20018;-44
2022/02/20 10:22:33;;;;;;;19.88;11.68;;;;;;;;;;5014253;28;20536;-43
2022/02/20 10:25:07;;;;;;;34.65;20.83;;;;;;;;;;5014635;28;20025;-44
2022/02/20 10:27:33;;;;;;;66.63;38.50;;;;;;;;;;5014286;28;20038;-44
2022/02/20 10:30:26;;;;;;;79.18;44.35;;;;;;;;;;5012628;28;20477;-45
2022/02/20 10:33:10;;;;;;;26.35;16.63;;;;;;;;;;5012404;28;20088;-44
2022/02/20 10:35:38;;;;;;;39.00;24.73;;;;;;;;;;5003020;28;20042;-43
2022/02/20 10:38:09;;;;;;;23.95;11.15;;;;;;;;;;5014372;28;20097;-44
2022/02/20 10:40:35;;;;;;;31.45;18.70;;;;;;;;;;5014169;28;20381;-44
2022/02/20 10:43:03;;;;;;;27.75;16.65;;;;;;;;;;5014134;28;20053;-43
2022/02/20 10:45:32;;;;;;;53.00;24.25;;;;;;;;;;5014066;28;20048;-44
2022/02/20 10:47:59;;;;;;;38.03;19.90;;;;;;;;;;5013769;28;20042;-44
2022/02/20 10:50:26;;;;;;;29.95;15.02;;;;;;;;;;5013937;28;20025;-43
2022/02/20 10:53:08;;;;;;;29.33;13.93;;;;;;;;;;5013714;28;20370;-43
2022/02/20 10:55:38;;;;;;;16.08;9.35;;;;;;;;;;5014008;28;20048;-43
2022/02/20 10:58:12;;;;;;;19.85;10.18;;;;;;;;;;5013866;28;20025;-44
2022/02/20 11:00:46;;;;;;;22.33;11.93;;;;;;;;;;5013867;28;20077;-43
2022/02/20 11:03:12;;;;;;;13.82;6.85;;;;;;;;;;5013642;28;20034;-42
2022/02/20 11:05:39;;;;;;;20.13;8.48;;;;;;;;;;5017921;28;20026;-45
2022/02/20 11:08:06;;;;;;;11.60;4.95;;;;;;;;;;5021968;28;20121;-45
2022/02/20 11:10:33;;;;;;;8.70;3.75;;;;;;;;;;5023567;28;20025;-44
2022/02/20 11:13:00;;;;;;;15.38;8.55;;;;;;;;;;5023258;28;20026;-43
2022/02/20 11:15:27;;;;;;;15.90;5.75;;;;;;;;;;5021961;28;20018;-43
2022/02/20 11:17:55;;;;;;;15.45;6.18;;;;;;;;;;5018463;28;20053;-42
2022/02/20 11:20:22;;;;;;;7.20;2.90;;;;;;;;;;5013696;28;20032;-42
2022/02/20 11:22:51;;;;;;;12.63;4.20;;;;;;;;;;5018002;28;20034;-44
2022/02/20 11:25:18;;;;;;;9.70;5.40;;;;;;;;;;5024167;28;20037;-44
2022/02/20 11:27:44;;;;;;;7.85;2.75;;;;;;;;;;5013399;28;20034;-44
2022/02/20 11:30:11;;;;;;;18.58;9.80;;;;;;;;;;5013897;28;20049;-42
2022/02/20 11:32:38;;;;;;;10.25;4.22;;;;;;;;;;5016967;28;20028;-42
2022/02/20 11:35:09;;;;;;;20.00;9.90;;;;;;;;;;5002924;28;20145;-44
2022/02/20 11:37:48;;;;;;;21.48;13.10;;;;;;;;;;5004031;28;20620;-44
2022/02/20 11:40:16;;;;;;;10.10;5.75;;;;;;;;;;5022609;28;20026;-43
2022/02/20 11:42:59;;;;;;;23.77;11.88;;;;;;;;;;5019284;28;20056;-44
2022/02/20 11:45:26;;;;;;;13.15;6.70;;;;;;;;;;5028501;28;20370;-45
2022/02/20 11:48:04;;;;;;;18.75;8.43;;;;;;;;;;5022537;28;20382;-46
2022/02/20 11:50:32;;;;;;;67.80;43.55;;;;;;;;;;5013437;28;20029;-48
2022/02/20 11:53:02;;;;;;;85.63;49.05;;;;;;;;;;5013233;28;20149;-49
2022/02/20 11:55:33;;;;;;;60.08;36.97;;;;;;;;;;5013177;28;20022;-46
2022/02/20 11:58:12;;;;;;;23.50;10.35;;;;;;;;;;5013507;28;20084;-45
2022/02/20 12:01:00;;;;;;;36.30;20.35;;;;;;;;;;5013329;28;20037;-45
2022/02/20 12:03:27;;;;;;;27.48;13.57;;;;;;;;;;5012928;28;20477;-45
2022/02/20 12:06:14;;;;;;;14.95;8.32;;;;;;;;;;5013326;28;20038;-45
2022/02/20 12:08:44;;;;;;;16.70;9.85;;;;;;;;;;5013087;28;20053;-44
2022/02/20 12:11:16;;;;;;;7.68;3.75;;;;;;;;;;5023383;28;20543;-43
2022/02/20 12:13:46;;;;;;;8.57;3.78;;;;;;;;;;5022748;28;20084;-47
2022/02/20 12:16:19;;;;;;;12.85;5.60;;;;;;;;;;5022827;28;20434;-46
2022/02/20 12:19:05;;;;;;;16.20;8.73;;;;;;;;;;5025547;28;20123;-49
2022/02/20 12:21:32;;;;;;;12.68;6.53;;;;;;;;;;5024133;28;20022;-46
2022/02/20 12:23:59;;;;;;;24.75;10.07;;;;;;;;;;5016658;28;20030;-43
2022/02/20 12:26:50;;;;;;;11.05;5.00;;;;;;;;;;5016435;28;20113;-43
2022/02/20 12:29:19;;;;;;;13.93;6.05;;;;;;;;;;4937005;29;20040;-46
2022/02/20 12:32:01;;;;;;;19.83;9.27;;;;;;;;;;4936946;29;20122;-44
2022/02/20 12:34:46;;;;;;;11.63;6.40;;;;;;;;;;4936682;29;20051;-44
2022/02/20 12:37:13;;;;;;;12.20;6.53;;;;;;;;;;4936778;29;20583;-44
2022/02/20 12:39:39;;;;;;;10.40;6.72;;;;;;;;;;4936758;29;20071;-44
2022/02/20 12:42:06;;;;;;;9.55;5.40;;;;;;;;;;4937025;29;20110;-44
2022/02/20 12:44:32;;;;;;;20.52;7.68;;;;;;;;;;4936862;29;20480;-44
2022/02/20 12:46:59;;;;;;;13.25;5.88;;;;;;;;;;4936828;29;20056;-44
2022/02/20 12:49:25;;;;;;;12.07;6.28;;;;;;;;;;4936672;29;20596;-44
2022/02/20 12:52:07;;;;;;;11.40;6.10;;;;;;;;;;4936544;29;20054;-45
2022/02/20 12:54:33;;;;;;;10.52;6.43;;;;;;;;;;4936871;29;20496;-43
2022/02/20 12:57:06;;;;;;;12.30;6.40;;;;;;;;;;4936662;29;20058;-43
2022/02/20 12:59:33;;;;;;;23.23;10.27;;;;;;;;;;4936546;29;20191;-43
2022/02/20 13:02:06;;;;;;;30.52;14.82;;;;;;;;;;4936465;29;20396;-45
2022/02/20 13:04:32;;;;;;;22.17;11.02;;;;;;;;;;4936177;29;20546;-45
2022/02/20 13:07:02;;;;;;;18.50;8.45;;;;;;;;;;4985181;28;20608;-46
2022/02/20 13:09:49;;;;;;;25.30;12.15;;;;;;;;;;4996334;28;20027;-45
2022/02/20 13:12:17;;;;;;;22.95;10.48;;;;;;;;;;4996233;28;20037;-45
2022/02/20 13:14:58;;;;;;;19.23;9.95;;;;;;;;;;4996148;28;20030;-45
2022/02/20 13:17:44;;;;;;;15.00;8.27;;;;;;;;;;4995990;28;20027;-45
2022/02/20 13:20:26;;;;;;;13.20;7.57;;;;;;;;;;4996150;28;20030;-46
2022/02/20 13:22:52;;;;;;;19.20;10.07;;;;;;;;;;4996034;28;20030;-46
2022/02/20 13:25:18;;;;;;;16.00;9.43;;;;;;;;;;4996021;28;20494;-44
2022/02/20 13:27:48;;;;;;;23.60;11.43;;;;;;;;;;4995675;28;20100;-44
2022/02/20 13:30:26;;;;;;;19.23;8.25;;;;;;;;;;4996312;28;20026;-44
2022/02/20 13:32:52;;;;;;;14.05;8.50;;;;;;;;;;4995945;28;20030;-44
2022/02/20 13:35:37;;;;;;;13.90;9.35;;;;;;;;;;5000125;28;20116;-43
2022/02/20 13:38:07;;;;;;;16.83;9.13;;;;;;;;;;5015261;28;20044;-43
2022/02/20 13:40:38;;;;;;;19.25;11.23;;;;;;;;;;5015327;28;20030;-43
2022/02/20 13:43:11;;;;;;;14.77;8.98;;;;;;;;;;5015155;28;20037;-43
2022/02/20 13:45:48;;;;;;;18.55;9.05;;;;;;;;;;5015050;28;20058;-43
2022/02/20 13:48:23;;;;;;;19.00;9.50;;;;;;;;;;5014817;28;20050;-44
2022/02/20 13:50:49;;;;;;;15.48;9.50;;;;;;;;;;5014966;28;20025;-44
2022/02/20 13:53:15;;;;;;;14.52;9.07;;;;;;;;;;5014816;28;20084;-45
2022/02/20 13:55:52;;;;;;;18.88;9.70;;;;;;;;;;5015004;28;20473;-44
2022/02/20 13:58:20;;;;;;;16.02;8.65;;;;;;;;;;5014962;28;20077;-43
2022/02/20 14:00:50;;;;;;;19.98;11.18;;;;;;;;;;5014952;28;20026;-43
2022/02/20 14:03:19;;;;;;;14.52;8.60;;;;;;;;;;5014669;28;20092;-44
2022/02/20 14:05:47;;;;;;;23.00;13.70;;;;;;;;;;5014902;28;20112;-46
2022/02/20 14:08:16;;;;;;;19.70;12.68;;;;;;;;;;5014691;28;20074;-43
2022/02/20 14:10:52;;;;;;;22.52;13.82;;;;;;;;;;5014557;28;20026;-43
2022/02/20 14:13:18;;;;;;;16.80;10.68;;;;;;;;;;5015022;28;20065;-44
2022/02/20 14:16:01;;;;;;;14.85;8.90;;;;;;;;;;5014549;28;20021;-44
2022/02/20 14:18:32;;;;;;;18.33;10.55;;;;;;;;;;5014840;28;20053;-43
2022/02/20 14:21:01;;;;;;;13.30;8.15;;;;;;;;;;5014541;28;20022;-45
2022/02/20 14:23:29;;;;;;;13.45;8.27;;;;;;;;;;5014212;28;20101;-46
2022/02/20 14:25:55;;;;;;;17.25;8.75;;;;;;;;;;5014284;28;20033;-45
2022/02/20 14:28:29;;;;;;;14.95;9.80;;;;;;;;;;5014406;28;20073;-45
2022/02/20 14:31:16;;;;;;;14.38;8.80;;;;;;;;;;5014302;28;20528;-46
2022/02/20 14:33:43;;;;;;;8.45;6.50;;;;;;;;;;5014554;28;20169;-45